Time;durP1;ratioP1;P1;durP2;ratioP2;P2;SDS_P1;SDS_P2;PMS_P1;PMS_P2;Temp;Humidity;BMP_temperature;BMP_pressure;BME280_temperature;BME280_humidity;BME280_pressure;Samples;Min_cycle;Max_cycle;Signal;HPM_P1;HPM_P2
2021/09/27 00:00:16;;;;;;;;;5.25;5.25;;;;;19.73;70.25;101117.81;4962146;28;45450;-71
2021/09/27 00:02:42;;;;;;;;;8.25;7.50;;;;;19.70;70.33;101118.03;4961994;28;45175;-71
2021/09/27 00:05:12;;;;;;;;;8.50;5.75;;;;;19.73;70.34;101124.13;4962368;28;45290;-71
2021/09/27 00:07:38;;;;;;;;;9.00;7.50;;;;;19.68;70.18;101120.84;4950112;28;45701;-70
2021/09/27 00:10:06;;;;;;;;;7.75;7.75;;;;;19.70;70.41;101126.16;4961978;28;45452;-71
2021/09/27 00:12:31;;;;;;;;;4.50;4.50;;;;;19.90;70.51;101155.56;4961904;28;46092;-71
2021/09/27 00:14:57;;;;;;;;;5.25;4.25;;;;;19.55;70.66;101093.69;4962242;28;45214;-71
2021/09/27 00:17:22;;;;;;;;;7.75;7.00;;;;;19.72;70.63;101127.78;4962146;28;45202;-71
2021/09/27 00:19:47;;;;;;;;;7.75;7.75;;;;;19.73;70.79;101125.94;4953500;28;45373;-71
2021/09/27 00:22:13;;;;;;;;;7.00;7.00;;;;;19.68;70.45;101111.81;4957570;28;45463;-71
2021/09/27 00:24:38;;;;;;;;;6.50;6.00;;;;;19.81;70.54;101131.75;4961905;28;45333;-71
2021/09/27 00:27:04;;;;;;;;;6.25;6.25;;;;;19.91;70.59;101141.06;4962297;28;45388;-71
2021/09/27 00:29:30;;;;;;;;;9.00;7.50;;;;;19.73;70.35;101106.97;4961725;28;45381;-71
2021/09/27 00:31:55;;;;;;;;;6.75;6.00;;;;;19.64;70.59;101100.34;4961693;28;45377;-71
2021/09/27 00:34:21;;;;;;;;;7.00;4.75;;;;;19.74;70.83;101124.97;4961849;28;45309;-71
2021/09/27 00:36:46;;;;;;;;;9.25;8.50;;;;;19.74;70.66;101116.84;4961973;28;45887;-71
2021/09/27 00:39:12;;;;;;;;;6.25;6.25;;;;;19.59;70.75;101092.50;4961181;28;45472;-71
2021/09/27 00:41:37;;;;;;;;;6.25;5.00;;;;;19.72;70.40;101113.38;4961374;28;45465;-71
2021/09/27 00:44:03;;;;;;;;;5.00;5.00;;;;;19.76;70.28;101123.06;4960088;28;45153;-71
2021/09/27 00:46:32;;;;;;;;;7.00;7.00;;;;;19.77;70.56;101122.13;4961697;28;45247;-71
2021/09/27 00:48:58;;;;;;;;;7.00;7.00;;;;;19.91;70.42;101146.47;4948319;28;45323;-71
2021/09/27 00:51:29;;;;;;;;;7.25;6.25;;;;;19.67;70.60;101108.25;4961748;28;46209;-71
2021/09/27 00:54:00;;;;;;;;;8.25;8.25;;;;;19.74;70.50;101116.84;4959491;28;45839;-71
2021/09/27 00:56:33;;;;;;;;;6.00;6.00;;;;;19.80;70.53;101124.63;4961715;28;45451;-71
2021/09/27 00:59:00;;;;;;;;;8.00;8.00;;;;;19.66;70.53;101101.09;4961154;28;45413;-71
2021/09/27 01:01:26;;;;;;;;;7.00;7.00;;;;;19.67;70.12;101108.25;4960053;28;46120;-71
2021/09/27 01:03:53;;;;;;;;;7.50;6.25;;;;;19.69;70.58;101109.03;4961005;28;45377;-71
2021/09/27 01:06:27;;;;;;;;;9.00;7.25;;;;;19.57;70.55;101077.34;4956622;28;45385;-71
2021/09/27 01:09:31;;;;;;;;;9.25;8.00;;;;;19.80;70.79;101125.50;4949207;28;45333;-71
2021/09/27 01:12:23;;;;;;;;;7.00;7.00;;;;;19.79;70.47;101123.72;4939461;28;48096;-71
2021/09/27 01:15:26;;;;;;;;;6.00;5.00;;;;;19.77;70.61;101116.69;4960503;28;45460;-71
2021/09/27 01:18:24;;;;;;;;;5.00;5.00;;;;;19.50;70.77;101074.16;4961013;28;45465;-71
2021/09/27 01:21:15;;;;;;;;;6.25;6.25;;;;;19.71;70.51;101112.53;4948530;28;45445;-71
2021/09/27 01:24:05;;;;;;;;;5.50;5.00;;;;;19.73;70.66;101113.28;4960801;28;45384;-71
2021/09/27 01:26:58;;;;;;;;;11.75;8.50;;;;;19.74;70.61;101108.72;4960807;28;45489;-71
2021/09/27 01:29:33;;;;;;;;;8.25;8.25;;;;;19.75;70.78;101113.22;4949319;28;45424;-71
2021/09/27 01:32:31;;;;;;;;;6.25;6.25;;;;;19.71;70.52;101109.81;4960729;28;45448;-71
2021/09/27 01:35:24;;;;;;;;;7.00;6.75;;;;;19.71;70.85;101117.94;4961009;28;45436;-71
2021/09/27 01:38:08;;;;;;;;;7.00;7.00;;;;;19.69;70.63;101110.88;4960120;28;45399;-71
2021/09/27 01:40:43;;;;;;;;;9.25;7.75;;;;;19.33;71.03;101050.00;4960966;28;45448;-71
2021/09/27 01:43:29;;;;;;;;;8.75;8.00;;;;;19.52;70.60;101077.63;4960430;28;45523;-71
2021/09/27 01:46:25;;;;;;;;;8.75;8.25;;;;;19.52;70.75;101085.75;4960438;28;45714;-71
2021/09/27 01:49:05;;;;;;;;;6.50;6.00;;;;;19.70;70.80;101101.78;4948419;28;45557;-71
2021/09/27 01:51:55;;;;;;;;;8.75;7.50;;;;;19.73;70.75;101098.84;4958329;28;45529;-71
2021/09/27 01:54:28;;;;;;;;;8.75;8.25;;;;;19.71;70.93;101088.16;4960370;28;45594;-71
2021/09/27 01:57:16;;;;;;;;;7.25;6.25;;;;;19.71;70.74;101100.81;4960462;28;45432;-71
2021/09/27 02:00:02;;;;;;;;;9.00;9.00;;;;;19.66;70.84;101098.38;4960279;28;45587;-71
2021/09/27 02:02:47;;;;;;;;;9.75;9.00;;;;;19.67;71.11;101083.88;4964349;28;45227;-71
2021/09/27 02:05:26;;;;;;;;;8.25;7.50;;;;;19.65;70.94;101079.56;4951587;28;45302;-71
2021/09/27 02:08:17;;;;;;;;;9.50;9.50;;;;;19.56;70.91;101062.03;4962567;28;45445;-71
2021/09/27 02:10:48;;;;;;;;;12.50;10.25;;;;;19.61;70.95;101076.16;4963735;28;45406;-71
2021/09/27 02:13:21;;;;;;;;;9.25;8.75;;;;;19.29;70.95;101016.84;4963809;28;45421;-71
2021/09/27 02:15:58;;;;;;;;;8.75;8.75;;;;;19.33;70.83;101021.13;4963885;28;45255;-71
2021/09/27 02:18:35;;;;;;;;;9.00;8.50;;;;;19.42;70.98;101052.97;4963683;28;46385;-71
2021/09/27 02:21:08;;;;;;;;;10.25;9.00;;;;;19.41;70.87;101047.66;4950705;28;45459;-71
2021/09/27 02:24:00;;;;;;;;;10.00;8.25;;;;;19.58;70.69;101071.81;4953630;28;45392;-71
2021/09/27 02:26:26;;;;;;;;;8.75;8.25;;;;;19.32;71.02;101029.34;4964003;28;45305;-71
2021/09/27 02:28:51;;;;;;;;;10.00;8.25;;;;;19.55;70.67;101072.00;4963674;28;45954;-71
2021/09/27 02:31:43;;;;;;;;;10.00;9.25;;;;;19.34;70.94;101036.38;4963194;28;45283;-71
2021/09/27 02:34:27;;;;;;;;;9.50;7.00;;;;;19.58;71.07;101082.66;4952346;28;45425;-71
2021/09/27 02:37:01;;;;;;;;;10.25;9.00;;;;;19.59;70.82;101072.69;4963654;28;45386;-71
2021/09/27 02:39:36;;;;;;;;;12.00;9.25;;;;;19.40;71.09;101046.81;4962931;28;45517;-71
2021/09/27 02:42:28;;;;;;;;;7.25;7.25;;;;;19.59;70.95;101076.25;4963480;28;45418;-71
2021/09/27 02:44:54;;;;;;;;;10.00;10.00;;;;;19.36;70.71;101041.69;4955093;28;45420;-71
2021/09/27 02:47:29;;;;;;;;;7.25;7.25;;;;;19.34;70.99;101036.38;4956286;28;45351;-71
2021/09/27 02:49:57;;;;;;;;;8.25;8.25;;;;;19.55;70.75;101068.44;4954942;28;45516;-71
2021/09/27 02:52:24;;;;;;;;;7.75;7.75;;;;;19.37;70.84;101036.16;4962868;28;45422;-71
2021/09/27 02:54:54;;;;;;;;;10.25;8.75;;;;;19.36;70.87;101033.56;4963554;28;45314;-71
2021/09/27 02:57:19;;;;;;;;;7.25;7.25;;;;;19.61;70.94;101079.75;4963115;28;45362;-71
2021/09/27 03:00:06;;;;;;;;;14.00;10.25;;;;;19.62;70.98;101075.19;4963010;28;45625;-71
2021/09/27 03:02:34;;;;;;;;;9.75;7.50;;;;;19.60;70.84;101075.28;4951821;28;45368;-71
2021/09/27 03:05:10;;;;;;;;;9.00;9.00;;;;;19.40;71.03;101040.53;4963283;28;46680;-71
2021/09/27 03:08:13;;;;;;;;;7.25;7.25;;;;;19.57;70.80;101061.94;4959018;28;45228;-71
2021/09/27 03:10:59;;;;;;;;;7.75;7.75;;;;;19.56;70.81;101060.22;4953928;28;45343;-71
2021/09/27 03:13:33;;;;;;;;;9.50;9.50;;;;;19.32;70.99;101032.91;4963047;28;45485;-71
2021/09/27 03:16:04;;;;;;;;;12.25;11.00;;;;;19.55;71.01;101077.44;4963407;28;45311;-71
2021/09/27 03:19:07;;;;;;;;;10.50;10.50;;;;;19.55;70.97;101076.56;4948383;28;45350;-71
2021/09/27 03:21:44;;;;;;;;;6.75;6.75;;;;;19.56;70.93;101072.88;4962525;28;46715;-71
2021/09/27 03:24:30;;;;;;;;;7.25;7.25;;;;;19.51;70.81;101064.19;4961689;28;45869;-71
2021/09/27 03:27:15;;;;;;;;;9.75;9.00;;;;;19.25;71.19;101029.72;4962974;28;45519;-71
2021/09/27 03:29:53;;;;;;;;;11.00;10.00;;;;;19.48;70.94;101069.78;4962356;28;45458;-71
2021/09/27 03:32:27;;;;;;;;;13.25;10.00;;;;;19.47;71.20;101071.63;4962485;28;45354;-71
2021/09/27 03:35:11;;;;;;;;;8.50;7.25;;;;;19.48;70.90;101064.38;4962695;28;45310;-71
2021/09/27 03:37:54;;;;;;;;;9.75;9.50;;;;;19.42;70.93;101063.81;4962605;28;45557;-71
2021/09/27 03:40:37;;;;;;;;;10.75;10.75;;;;;19.41;71.24;101064.81;4952285;28;45667;-71
2021/09/27 03:43:44;;;;;;;;;11.50;11.50;;;;;19.11;71.32;101018.03;4962327;28;45654;-71
2021/09/27 03:46:18;;;;;;;;;13.50;10.00;;;;;19.19;71.21;101038.22;4954396;28;45585;-71
2021/09/27 03:49:05;;;;;;;;;9.00;9.00;;;;;19.43;71.40;101089.06;4956760;28;45330;-71
2021/09/27 03:51:48;;;;;;;;;11.25;8.75;;;;;19.15;71.29;101039.41;4960533;28;45449;-71
2021/09/27 03:54:35;;;;;;;;;11.50;9.75;;;;;19.41;71.08;101083.75;4961936;28;45515;-71
2021/09/27 03:57:12;;;;;;;;;9.00;8.25;;;;;19.37;71.28;101076.78;4951171;28;45394;-71
2021/09/27 03:59:46;;;;;;;;;11.75;9.50;;;;;19.22;71.18;101048.84;4960983;28;45505;-71
2021/09/27 04:02:27;;;;;;;;;9.50;9.50;;;;;19.24;71.21;101057.75;4962309;28;45308;-71
2021/09/27 04:05:04;;;;;;;;;12.00;12.00;;;;;19.18;71.19;101047.31;4961994;28;45321;-71
2021/09/27 04:08:07;;;;;;;;;11.00;10.50;;;;;19.33;71.31;101059.00;4950357;28;45360;-71
2021/09/27 04:11:07;;;;;;;;;11.50;10.00;;;;;19.46;71.44;101096.97;4961157;28;45342;-71
2021/09/27 04:13:43;;;;;;;;;7.25;6.75;;;;;19.45;71.04;101089.81;4962463;28;45349;-71
2021/09/27 04:16:50;;;;;;;;;10.50;10.50;;;;;19.23;71.15;101045.19;4961806;28;46376;-71
2021/09/27 04:19:26;;;;;;;;;9.00;9.00;;;;;19.07;71.22;101028.19;4941170;28;45548;-71
2021/09/27 04:22:00;;;;;;;;;9.75;9.75;;;;;19.38;71.11;101085.78;4962166;28;45318;-71
2021/09/27 04:24:44;;;;;;;;;7.75;7.25;;;;;19.36;71.15;101085.00;4961033;28;45314;-71
2021/09/27 04:27:24;;;;;;;;;9.25;8.00;;;;;19.35;70.78;101081.41;4951296;28;46209;-71
2021/09/27 04:30:17;;;;;;;;;9.50;9.50;;;;;19.34;70.88;101079.66;4961525;28;45956;-71
2021/09/27 04:33:13;;;;;;;;;11.75;8.50;;;;;19.32;70.99;101064.50;4960347;28;45424;-71
2021/09/27 04:36:01;;;;;;;;;11.50;10.75;;;;;19.14;71.00;101039.50;4961946;28;45430;-71
2021/09/27 04:38:28;;;;;;;;;10.75;10.75;;;;;19.23;71.06;101050.59;4950728;28;46431;-71
2021/09/27 04:41:35;;;;;;;;;9.00;7.00;;;;;19.32;70.83;101069.94;4961543;28;45238;-71
2021/09/27 04:44:13;;;;;;;;;11.00;9.25;;;;;19.34;70.65;101078.81;4899404;29;45284;-71
2021/09/27 04:46:56;;;;;;;;;7.75;7.00;;;;;19.14;70.72;101042.19;4892407;29;45418;-71
2021/09/27 04:49:30;;;;;;;;;8.00;7.25;;;;;19.03;70.40;101027.50;4934950;28;46493;-71
2021/09/27 04:52:09;;;;;;;;;5.25;5.00;;;;;19.24;70.56;101054.16;4961711;28;45409;-71
2021/09/27 04:55:03;;;;;;;;;6.00;6.00;;;;;19.03;70.87;101022.09;4961474;28;45326;-71
2021/09/27 04:57:30;;;;;;;;;7.25;6.75;;;;;19.18;70.85;101050.03;4961522;28;45375;-71
2021/09/27 05:00:19;;;;;;;;;6.75;6.75;;;;;19.19;70.61;101051.75;4961268;28;45453;-71
2021/09/27 05:03:19;;;;;;;;;8.50;8.50;;;;;19.17;70.99;101045.56;4960958;28;45227;-71
2021/09/27 05:05:53;;;;;;;;;11.00;7.00;;;;;19.18;70.92;101043.75;4961466;28;45385;-71
2021/09/27 05:08:39;;;;;;;;;9.75;9.75;;;;;19.14;70.85;101045.75;4951845;28;45580;-71
2021/09/27 05:11:20;;;;;;;;;6.25;6.00;;;;;19.09;70.71;101050.59;4960985;28;45446;-71
2021/09/27 05:14:00;;;;;;;;;8.75;5.00;;;;;19.07;70.82;101045.28;4961400;28;45247;-71
2021/09/27 05:16:57;;;;;;;;;7.50;7.50;;;;;18.89;70.57;100995.06;4961362;28;45432;-71
2021/09/27 05:19:35;;;;;;;;;8.25;8.25;;;;;19.05;71.13;101025.56;4943671;28;45261;-71
2021/09/27 05:22:06;;;;;;;;;9.00;7.75;;;;;19.04;71.02;101033.78;4949581;28;45632;-71
2021/09/27 05:24:44;;;;;;;;;8.00;8.00;;;;;19.02;70.91;101025.75;4975896;28;45254;-71
2021/09/27 05:27:22;;;;;;;;;7.75;6.75;;;;;18.98;71.04;101012.56;4961229;28;45345;-71
2021/09/27 05:29:59;;;;;;;;;5.00;5.00;;;;;19.04;71.05;101007.63;4955573;28;45209;-71
2021/09/27 05:32:34;;;;;;;;;7.75;6.75;;;;;18.77;70.85;100980.44;4941768;28;45690;-71
2021/09/27 05:35:16;;;;;;;;;6.25;6.25;;;;;18.91;71.12;101011.19;4961010;28;45432;-71
2021/09/27 05:38:06;;;;;;;;;9.50;7.00;;;;;19.04;70.90;101040.09;4960651;28;45214;-71
2021/09/27 05:40:52;;;;;;;;;7.75;7.00;;;;;19.01;70.71;101034.88;4955085;28;45464;-71
2021/09/27 05:43:52;;;;;;;;;6.50;5.00;;;;;18.91;71.21;101022.91;4960585;28;46531;-71
2021/09/27 05:46:29;;;;;;;;;11.00;7.50;;;;;19.04;70.85;101044.59;4960607;28;45457;-71
2021/09/27 05:49:09;;;;;;;;;8.75;6.75;;;;;19.03;70.82;101016.69;4949225;28;45382;-71
2021/09/27 05:51:50;;;;;;;;;6.50;5.75;;;;;18.95;71.15;101010.03;4958180;28;45424;-71
2021/09/27 05:54:38;;;;;;;;;8.25;7.25;;;;;18.97;71.14;101016.22;4960373;28;45461;-71
2021/09/27 05:57:21;;;;;;;;;6.00;6.00;;;;;18.67;71.04;100969.31;4958318;28;45475;-71
2021/09/27 05:59:58;;;;;;;;;7.50;7.00;;;;;18.98;71.03;101013.41;4958549;28;45532;-71
2021/09/27 06:02:58;;;;;;;;;5.50;4.75;;;;;19.00;71.47;101014.19;4953797;28;46448;-71
2021/09/27 06:06:34;;;;;;;;;;;;;;;;;;;;;
2021/09/27 06:12:21;;;;;;;;;9.50;6.00;;;;;18.66;71.34;100959.50;5155528;23;46775;-79
2021/09/27 06:14:55;;;;;;;;;6.75;6.75;;;;;18.62;71.57;100948.97;4943021;28;45351;-79
2021/09/27 06:17:54;;;;;;;;;6.00;6.00;;;;;19.07;71.30;101028.19;4942402;28;47296;-78
2021/09/27 06:20:37;;;;;;;;;5.75;5.75;;;;;18.97;71.01;101027.91;4928305;28;45525;-77
2021/09/27 06:23:16;;;;;;;;;5.25;5.00;;;;;18.73;71.28;100995.13;4939775;28;45593;-79
2021/09/27 06:26:49;;;;;;;;;6.75;6.75;;;;;19.08;71.30;101059.69;4952435;28;45467;-79
2021/09/27 06:47:55;;;;;;;;;7.75;7.75;;;;;18.93;71.17;101025.47;4962003;28;45454;-77
2021/09/27 06:50:28;;;;;;;;;5.25;5.00;;;;;19.06;71.09;101039.97;4962983;28;45240;-78
2021/09/27 06:52:53;;;;;;;;;9.75;8.50;;;;;18.80;71.73;101009.13;4944325;28;45336;-73
2021/09/27 06:55:24;;;;;;;;;7.00;7.00;;;;;18.89;71.31;101011.28;4962802;28;45404;-77
2021/09/27 06:57:54;;;;;;;;;5.75;5.75;;;;;18.66;71.36;100959.50;4962936;28;45449;-77
2021/09/27 07:00:24;;;;;;;;;7.00;7.00;;;;;18.91;71.42;100987.72;4961319;28;47400;-78
2021/09/27 07:02:54;;;;;;;;;9.00;7.75;;;;;18.81;71.14;100975.69;4962468;28;45476;-78
2021/09/27 07:05:28;;;;;;;;;9.50;7.50;;;;;19.00;71.45;101000.66;4958671;28;45656;-77
2021/09/27 07:08:03;;;;;;;;;;;;;;;;;;;;;
2021/09/27 07:11:00;;;;;;;;;5.75;5.75;;;;;18.75;71.53;100968.84;4961090;28;75698;-78
2021/09/27 07:16:17;;;;;;;;;5.50;4.50;;;;;19.02;71.56;101000.56;4961283;28;45504;-78
2021/09/27 07:18:50;;;;;;;;;7.50;6.75;;;;;18.81;71.37;100973.00;4960902;28;45423;-78
2021/09/27 07:21:24;;;;;;;;;5.00;4.50;;;;;18.98;71.73;100999.91;4961916;28;45750;-76
2021/09/27 07:23:53;;;;;;;;;8.25;5.25;;;;;18.92;71.56;101002.13;4962657;28;45419;-78
2021/09/27 07:26:27;;;;;;;;;6.50;6.00;;;;;18.88;71.84;100993.34;4961207;28;45661;-78
2021/09/27 07:29:16;;;;;;;;;7.25;7.25;;;;;18.83;71.90;100996.31;4960457;28;45407;-78
2021/09/27 07:31:47;;;;;;;;;6.50;5.00;;;;;18.59;71.95;100959.97;4961469;28;45481;-77
2021/09/27 07:35:12;;;;;;;;;;;;;;;;;;;;;
2021/09/27 08:42:34;;;;;;;;;7.00;5.75;;;;;18.56;73.38;100954.75;4990555;23;45489;-75
2021/09/27 08:45:04;;;;;;;;;6.25;6.25;;;;;19.00;73.09;101021.44;4960911;28;45819;-70
2021/09/27 08:47:36;;;;;;;;;8.50;8.50;;;;;18.77;73.22;100990.41;4980542;28;45395;-71
2021/09/27 08:50:11;;;;;;;;;9.00;6.25;;;;;18.75;73.11;100981.50;4969058;28;45367;-71
2021/09/27 08:55:36;;;;;;;;;5.75;5.75;;;;;18.84;73.19;101003.47;4950146;28;45701;-70
2021/09/27 08:58:29;;;;;;;;;7.00;7.00;;;;;18.76;73.42;100989.53;4961526;28;45335;-70
2021/09/27 09:01:02;;;;;;;;;8.50;8.50;;;;;18.71;73.13;100978.16;4933195;28;45303;-70
2021/09/27 09:03:56;;;;;;;;;8.50;8.25;;;;;19.01;73.40;101024.06;4961070;28;46215;-68
2021/09/27 09:07:07;;;;;;;;;11.00;10.00;;;;;18.79;73.50;100988.47;4959749;28;45409;-67
2021/09/27 09:09:38;;;;;;;;;8.00;7.75;;;;;19.03;73.51;101013.13;4949899;28;45416;-67
2021/09/27 09:12:21;;;;;;;;;6.00;6.00;;;;;18.95;73.26;101007.34;4960379;28;45469;-67
2021/09/27 09:15:15;;;;;;;;;7.25;6.25;;;;;19.05;73.81;101024.72;4954988;28;46150;-67
2021/09/27 09:17:55;;;;;;;;;8.25;8.25;;;;;18.93;73.42;100998.44;4960765;28;45402;-68
2021/09/27 09:20:59;;;;;;;;;7.50;7.00;;;;;19.07;73.58;101017.38;4961101;28;45307;-67
2021/09/27 09:23:34;;;;;;;;;11.25;7.75;;;;;19.12;73.63;101028.75;4919993;28;45387;-67
2021/09/27 09:26:07;;;;;;;;;7.00;6.75;;;;;19.01;73.28;101013.22;4954780;28;45431;-67
2021/09/27 09:28:34;;;;;;;;;8.00;7.00;;;;;19.04;73.20;101018.44;4961398;28;45533;-67
2021/09/27 09:31:25;;;;;;;;;10.50;6.75;;;;;18.70;73.42;100954.75;4943042;28;45501;-67
2021/09/27 09:33:53;;;;;;;;;9.00;7.00;;;;;19.02;73.54;101016.78;4943237;28;45492;-67
2021/09/27 09:36:24;;;;;;;;;8.00;6.75;;;;;18.81;73.85;100978.41;4960901;28;46682;-68
2021/09/27 09:38:50;;;;;;;;;8.00;7.00;;;;;19.00;73.73;100997.94;4958511;28;45349;-67
2021/09/27 09:41:17;;;;;;;;;9.25;6.25;;;;;18.91;73.81;100987.72;4958768;28;45410;-67
2021/09/27 09:43:46;;;;;;;;;9.75;9.00;;;;;18.91;73.85;100981.44;4960365;28;45429;-68
2021/09/27 09:46:16;;;;;;;;;8.50;8.00;;;;;19.11;74.00;101024.34;4939533;28;47629;-68
2021/09/27 09:49:06;;;;;;;;;8.50;6.50;;;;;19.18;74.22;101014.84;4954993;28;45547;-73
2021/09/27 09:51:35;;;;;;;;;6.50;6.50;;;;;19.23;74.22;101020.84;4934370;28;45480;-73
2021/09/27 09:54:03;;;;;;;;;6.75;5.00;;;;;19.28;73.86;101023.25;4943063;28;45616;-70
2021/09/27 09:56:34;;;;;;;;;7.75;7.75;;;;;18.94;73.75;100955.06;4964610;28;48428;-69
2021/09/27 09:59:30;;;;;;;;;;;;;;;;;;;;;
2021/09/27 10:02:00;;;;;;;;;7.75;6.75;;;;;19.25;73.75;101001.78;4958897;28;69467;-68
2021/09/27 10:04:29;;;;;;;;;6.75;6.75;;;;;19.47;74.11;101033.75;4959198;28;45307;-68
2021/09/27 10:07:15;;;;;;;;;4.75;4.75;;;;;19.24;73.65;100992.81;4934875;28;45971;-68
2021/09/27 10:10:05;;;;;;;;;6.75;6.75;;;;;19.30;73.71;100982.56;4969539;28;45524;-68
2021/09/27 10:12:36;;;;;;;;;6.00;5.75;;;;;19.58;73.45;101024.94;4962468;28;45246;-68
2021/09/27 10:15:02;;;;;;;;;6.25;6.25;;;;;19.56;73.13;101022.31;4963847;28;45517;-66
2021/09/27 10:17:45;;;;;;;;;7.50;6.50;;;;;19.54;73.06;101026.09;4959432;28;48790;-68
2021/09/27 10:20:40;;;;;;;;;;;;;;;;;;;;;
2021/09/27 10:23:36;;;;;;;;;6.75;5.75;;;;;19.64;72.64;101027.22;4961397;28;66589;-68
2021/09/27 10:26:26;;;;;;;;;4.50;4.00;;;;;19.48;73.19;100996.69;4963352;28;45385;-70
2021/09/27 10:28:56;;;;;;;;;0.00;0.00;;;;;19.65;72.82;101028.09;4951023;28;45512;-70
2021/09/27 10:31:25;;;;;;;;;6.25;6.00;;;;;19.48;73.05;100997.59;4949038;28;45683;-70
2021/09/27 10:33:55;;;;;;;;;5.25;5.00;;;;;19.53;73.16;101008.97;4963417;28;45149;-70
2021/09/27 10:36:28;;;;;;;;;6.00;5.50;;;;;19.47;73.05;101003.97;4955722;28;45259;-69
2021/09/27 10:38:58;;;;;;;;;7.00;6.00;;;;;19.67;73.17;101043.25;4961941;28;46672;-70
2021/09/27 10:41:28;;;;;;;;;7.50;7.00;;;;;19.52;73.19;101018.06;4931614;28;45692;-70
2021/09/27 10:43:59;;;;;;;;;4.75;4.75;;;;;19.60;73.12;101029.25;4928327;28;45354;-69
2021/09/27 10:46:47;;;;;;;;;7.75;6.00;;;;;19.59;73.35;101030.22;4920796;28;45208;-70
2021/09/27 10:49:38;;;;;;;;;5.00;5.00;;;;;19.50;73.30;101017.31;4922885;28;46973;-70
2021/09/27 10:52:16;;;;;;;;;4.00;4.00;;;;;19.66;73.46;101043.38;4929712;28;45432;-69
2021/09/27 10:54:45;;;;;;;;;5.25;5.25;;;;;19.63;73.77;101045.31;4945445;28;45395;-70
2021/09/27 10:57:18;;;;;;;;;6.50;4.75;;;;;19.44;73.47;101013.16;4926337;28;45472;-70
2021/09/27 10:59:55;;;;;;;;;5.00;5.00;;;;;19.40;73.18;101003.50;4924627;28;45487;-70
2021/09/27 11:02:44;;;;;;;;;5.25;5.25;;;;;19.66;73.68;101041.50;4922825;28;45895;-70
2021/09/27 11:05:21;;;;;;;;;4.50;4.50;;;;;19.66;73.86;101062.31;4924410;28;45509;-69
2021/09/27 11:07:53;;;;;;;;;7.00;7.00;;;;;19.49;73.54;101039.91;4908719;28;45480;-68
2021/09/27 11:10:27;;;;;;;;;6.00;4.00;;;;;19.51;73.51;101047.94;4920242;28;46609;-69
2021/09/27 11:12:54;;;;;;;;;8.25;6.50;;;;;19.44;73.40;101026.72;4914356;28;45596;-69
2021/09/27 11:15:25;;;;;;;;;6.50;6.50;;;;;19.48;73.82;101032.78;4916734;28;45484;-68
2021/09/27 11:18:06;;;;;;;;;6.50;6.50;;;;;19.36;73.93;101020.91;4927993;28;45878;-69
2021/09/27 11:20:51;;;;;;;;;5.25;5.25;;;;;19.62;74.20;101058.94;4927539;28;45695;-69
2021/09/27 11:23:28;;;;;;;;;8.00;6.25;;;;;19.39;74.04;101031.53;4932647;28;45441;-68
2021/09/27 11:26:14;;;;;;;;;5.50;5.50;;;;;19.46;73.98;101034.69;4939838;28;45548;-69
2021/09/27 11:28:47;;;;;;;;;7.50;4.50;;;;;19.51;74.36;101056.97;4912667;28;45721;-69
2021/09/27 11:35:59;;;;;;;;;;;;;;;;;;;;;
2021/09/27 11:38:40;;;;;;;;;0.00;0.00;;;;;19.02;71.39;101115.03;4912648;28;45440;-67
2021/09/27 11:41:11;;;;;;;;;1.00;0.75;;;;;19.32;71.16;101180.91;4939448;28;45582;-66
2021/09/27 11:43:51;;;;;;;;;0.00;0.00;;;;;19.12;70.65;101155.94;4948797;28;48521;-67
2021/09/27 11:46:37;;;;;;;;;1.25;1.00;;;;;19.19;69.98;101189.75;4940910;28;45475;-72
2021/09/27 11:49:19;;;;;;;;;0.00;0.00;;;;;19.22;69.50;101194.13;4937149;28;46108;-67
2021/09/27 11:52:19;;;;;;;;;0.25;0.00;;;;;18.84;69.66;101135.09;4958191;28;45427;-67
2021/09/27 11:54:54;;;;;;;;;0.00;0.00;;;;;19.06;69.22;101186.06;4951294;28;45640;-67
2021/09/27 12:00:26;;;;;;;;;0.00;0.00;;;;;18.83;69.19;101172.13;4970935;28;45507;-70
2021/09/27 12:03:29;;;;;;;;;0.25;0.25;;;;;18.84;69.09;101178.38;4959976;28;45610;-66
2021/09/27 12:06:16;;;;;;;;;0.00;0.00;;;;;18.91;69.39;101200.53;4937471;28;46516;-66
2021/09/27 12:08:57;;;;;;;;;1.00;0.00;;;;;18.59;69.70;101170.84;5575273;23;47000;-67
2021/09/27 12:11:26;;;;;;;;;0.00;0.00;;;;;18.60;69.92;101175.28;4966097;28;45821;-67
2021/09/27 12:13:58;;;;;;;;;0.00;0.00;;;;;18.67;69.38;101192.88;4976139;28;45547;-67
2021/09/27 12:16:38;;;;;;;;;1.00;1.00;;;;;18.79;69.42;101218.31;4959506;28;47129;-68
2021/09/27 14:35:26;;;;;;;;;1.00;0.00;;;;;18.90;64.11;101304.28;4977468;28;45251;-70
2021/09/27 14:37:54;;;;;;;;;0.00;0.00;;;;;18.98;63.20;101315.53;4979226;28;45743;-70
2021/09/27 14:40:24;;;;;;;;;2.00;1.25;;;;;18.85;64.04;101304.56;4960281;28;45658;-70
2021/09/27 14:42:52;;;;;;;;;0.75;0.75;;;;;18.94;64.04;101314.81;4979346;28;45476;-70
2021/09/27 14:45:19;;;;;;;;;0.00;0.00;;;;;18.90;64.11;101317.81;4979297;28;45591;-70
2021/09/27 14:47:48;;;;;;;;;0.00;0.00;;;;;18.83;64.33;101310.06;4978574;28;45479;-70
2021/09/27 14:50:27;;;;;;;;;1.25;0.00;;;;;18.96;64.08;101333.66;4979288;28;45512;-70
2021/09/27 14:52:57;;;;;;;;;1.50;0.00;;;;;18.90;63.90;101324.09;4979542;28;45484;-70
2021/09/27 14:55:26;;;;;;;;;0.00;0.00;;;;;18.94;63.26;101338.31;4979193;28;45423;-70
2021/09/27 14:57:52;;;;;;;;;0.00;0.00;;;;;18.76;62.72;101310.44;4979449;28;45331;-70
2021/09/27 15:00:23;;;;;;;;;0.00;0.00;;;;;19.14;62.31;101364.19;4961774;28;45421;-70
2021/09/27 15:02:53;;;;;;;;;0.00;0.00;;;;;18.83;62.85;101306.47;4968456;28;45570;-70
2021/09/27 15:05:24;;;;;;;;;2.75;0.00;;;;;19.06;62.64;101357.41;4975660;28;45422;-70
2021/09/27 15:07:52;;;;;;;;;0.75;0.75;;;;;19.18;62.66;101352.25;4979564;28;45276;-70
2021/09/27 15:10:20;;;;;;;;;0.75;0.00;;;;;19.06;62.34;101345.69;4980860;28;45352;-70
2021/09/27 15:12:48;;;;;;;;;0.00;0.00;;;;;19.06;62.58;101340.28;4977479;28;45433;-69
2021/09/27 15:15:34;;;;;;;;;0.00;0.00;;;;;19.01;61.83;101345.09;4975673;28;45500;-69
2021/09/27 15:18:03;;;;;;;;;0.00;0.00;;;;;19.15;62.37;101355.13;4975007;28;45350;-69
2021/09/27 15:20:31;;;;;;;;;0.00;0.00;;;;;19.18;62.19;101369.34;4982254;28;45567;-70
2021/09/27 15:23:04;;;;;;;;;0.00;0.00;;;;;19.29;61.28;101389.50;4980745;28;45656;-70
2021/09/27 15:25:45;;;;;;;;;0.00;0.00;;;;;19.16;60.91;101370.38;4981135;28;45577;-69
2021/09/27 15:28:33;;;;;;;;;0.00;0.00;;;;;19.33;61.38;101397.34;4981044;28;45352;-69
2021/09/27 15:31:03;;;;;;;;;0.00;0.00;;;;;19.05;60.79;101354.78;4957754;28;45821;-68
2021/09/27 15:33:28;;;;;;;;;0.00;0.00;;;;;19.24;60.85;101384.34;4980678;28;45560;-70
2021/09/27 15:35:54;;;;;;;;;0.00;0.00;;;;;19.31;61.42;101401.09;4981697;28;45409;-70
2021/09/27 15:38:24;;;;;;;;;0.00;0.00;;;;;19.12;60.95;101367.00;4982183;28;45411;-70
2021/09/27 15:40:51;;;;;;;;;0.00;0.00;;;;;19.30;60.92;101399.38;4981994;28;45357;-70
2021/09/27 15:43:20;;;;;;;;;0.00;0.00;;;;;19.19;60.94;101381.91;4981730;28;45456;-70
2021/09/27 15:45:49;;;;;;;;;0.00;0.00;;;;;19.23;60.54;101390.75;4981625;28;45399;-70
2021/09/27 15:48:15;;;;;;;;;0.00;0.00;;;;;19.24;60.10;101393.34;4982318;28;45191;-70
2021/09/27 15:50:43;;;;;;;;;2.00;0.00;;;;;19.23;59.93;101402.44;4980270;28;45474;-70
2021/09/27 15:53:20;;;;;;;;;0.00;0.00;;;;;19.12;59.39;101383.22;4975748;28;45337;-68
2021/09/27 15:55:48;;;;;;;;;0.00;0.00;;;;;19.14;59.06;101392.13;4981080;28;45258;-70
2021/09/27 15:58:17;;;;;;;;;0.00;0.00;;;;;19.20;59.75;101401.75;4980759;28;45405;-69
2021/09/27 16:00:49;;;;;;;;;0.00;0.00;;;;;19.23;58.83;101420.50;4980725;28;45891;-69
2021/09/27 16:03:22;;;;;;;;;0.00;0.00;;;;;19.15;58.45;101404.72;4963837;28;47363;-68
2021/09/27 16:05:48;;;;;;;;;0.00;0.00;;;;;19.16;58.82;101413.69;4981705;28;45387;-68
2021/09/27 16:08:13;;;;;;;;;0.00;0.00;;;;;19.31;58.79;101437.19;4980784;28;45349;-68
2021/09/27 16:10:39;;;;;;;;;0.00;0.00;;;;;19.16;58.96;101416.41;4975786;28;45603;-70
2021/09/27 16:13:16;;;;;;;;;0.00;0.00;;;;;19.33;59.20;101456.91;4981423;28;45416;-71
2021/09/27 16:15:41;;;;;;;;;0.00;0.00;;;;;18.95;58.04;101403.16;4979500;28;45592;-69
2021/09/27 16:18:24;;;;;;;;;0.00;0.00;;;;;19.14;57.56;101429.16;4977279;28;45457;-70